createdAt,value
2023-01-30T00:01:17.987Z,10.03
2023-01-30T00:02:27.080Z,9.20
2023-01-30T00:03:35.759Z,10.18
2023-01-30T00:04:44.753Z,9.92
2023-01-30T00:05:54.312Z,8.63
2023-01-30T00:07:03.527Z,9.72
2023-01-30T00:08:12.397Z,8.82
2023-01-30T00:09:21.793Z,8.70
2023-01-30T00:10:30.829Z,8.07
2023-01-30T00:11:40.205Z,9.35
2023-01-30T00:12:48.765Z,7.87
2023-01-30T00:13:57.437Z,8.67
2023-01-30T00:15:08.656Z,8.35
2023-01-30T00:16:18.251Z,9.48
2023-01-30T00:17:29.147Z,10.88
2023-01-30T00:19:46.613Z,9.78
2023-01-30T00:21:00.597Z,10.82
2023-01-30T00:22:09.193Z,13.12
2023-01-30T00:23:18.216Z,11.42
2023-01-30T00:24:26.833Z,12.92
2023-01-30T00:25:36.175Z,16.02
2023-01-30T00:26:46.274Z,15.43
2023-01-30T00:27:57.076Z,15.27
2023-01-30T00:29:06.645Z,16.32
2023-01-30T00:30:16.815Z,15.32
2023-01-30T00:31:25.793Z,12.80
2023-01-30T00:32:34.417Z,11.60
2023-01-30T00:33:43.624Z,13.18
2023-01-30T00:34:53.264Z,11.33
2023-01-30T00:37:17.920Z,11.27
2023-01-30T00:38:26.707Z,10.35
2023-01-30T00:39:35.726Z,11.05
2023-01-30T00:40:45.474Z,12.25
2023-01-30T00:42:13.227Z,10.78
2023-01-30T00:43:40.061Z,11.75
2023-01-30T00:45:09.075Z,10.55
2023-01-30T00:46:52.453Z,9.40
2023-01-30T00:48:03.043Z,10.25
2023-01-30T00:49:12.771Z,10.00
2023-01-30T00:50:21.650Z,10.25
2023-01-30T00:51:30.607Z,9.60
2023-01-30T00:52:41.344Z,10.78
2023-01-30T00:53:50.894Z,8.98
2023-01-30T00:55:01.342Z,8.85
2023-01-30T00:56:10.025Z,9.87
2023-01-30T00:57:19.144Z,8.33
2023-01-30T00:58:28.058Z,9.02
2023-01-30T00:59:37.101Z,9.05
2023-01-30T01:00:46.932Z,9.70
2023-01-30T01:01:56.185Z,8.47
2023-01-30T01:03:05.869Z,8.95
2023-01-30T01:04:15.271Z,8.35
2023-01-30T01:05:25.345Z,7.95
2023-01-30T01:07:45.483Z,9.45
2023-01-30T01:08:54.815Z,8.43
2023-01-30T01:10:04.834Z,9.00
2023-01-30T01:11:15.795Z,8.23
2023-01-30T01:13:34.452Z,8.03
2023-01-30T01:14:43.627Z,9.00
2023-01-30T01:15:53.920Z,8.28
2023-01-30T01:17:03.356Z,7.78
2023-01-30T01:18:12.663Z,8.37
2023-01-30T01:19:21.881Z,8.35
2023-01-30T01:20:32.484Z,8.10
2023-01-30T01:21:41.558Z,8.40
2023-01-30T01:22:53.408Z,8.00
2023-01-30T01:24:02.665Z,8.73
2023-01-30T01:25:13.019Z,9.25
2023-01-30T01:26:22.635Z,8.60
2023-01-30T01:27:32.493Z,8.37
2023-01-30T01:28:41.075Z,9.10
2023-01-30T01:29:52.130Z,8.55
2023-01-30T01:31:11.241Z,8.97
2023-01-30T01:33:37.111Z,9.47
2023-01-30T01:34:45.733Z,9.42
2023-01-30T01:35:58.435Z,9.44
2023-01-30T01:37:07.287Z,9.32
2023-01-30T01:38:18.188Z,9.32
2023-01-30T01:39:29.682Z,10.75
2023-01-30T01:40:57.555Z,11.10
2023-01-30T01:42:11.467Z,9.65
2023-01-30T01:43:24.436Z,9.85
2023-01-30T04:00:05.181Z,11.33
2023-01-30T04:02:31.420Z,12.35
2023-01-30T04:03:42.892Z,13.88
2023-01-30T04:04:53.726Z,12.07
2023-01-30T04:06:03.322Z,10.58
2023-01-30T04:07:13.673Z,11.72
2023-01-30T04:08:23.768Z,11.20
2023-01-30T04:09:33.338Z,10.65
2023-01-30T04:10:44.053Z,12.12
2023-01-30T04:11:53.719Z,11.42
2023-01-30T04:13:02.605Z,10.75
2023-01-30T04:14:19.921Z,11.12
2023-01-30T04:15:34.192Z,10.12
2023-01-30T04:17:02.057Z,10.00
2023-01-30T04:18:30.404Z,10.45
2023-01-30T04:21:02.108Z,10.93
2023-01-30T04:23:22.829Z,10.65
2023-01-30T04:24:32.597Z,11.60
2023-01-30T04:25:41.233Z,12.17
2023-01-30T04:26:53.362Z,10.98
2023-01-30T04:28:03.329Z,11.93
2023-01-30T04:29:14.908Z,11.70
2023-01-30T04:30:24.772Z,11.00
2023-01-30T04:31:35.452Z,11.40
2023-01-30T04:32:46.329Z,11.47
2023-01-30T04:33:55.196Z,10.53
2023-01-30T04:35:05.132Z,10.78
2023-01-30T04:36:14.508Z,12.10
2023-01-30T04:37:24.593Z,11.93
2023-01-30T04:38:34.981Z,13.48
2023-01-30T04:39:43.942Z,10.20
2023-01-30T04:40:55.512Z,10.67
2023-01-30T04:42:04.612Z,13.75
2023-01-30T04:43:15.781Z,10.90
2023-01-30T04:44:35.555Z,11.00
2023-01-30T04:45:53.538Z,10.65
2023-01-30T04:47:02.388Z,11.20
2023-01-30T04:48:11.965Z,12.22
2023-01-30T04:49:21.812Z,12.40
2023-01-30T04:50:31.490Z,11.35
2023-01-30T04:51:40.148Z,11.12
2023-01-30T04:52:49.359Z,13.70
2023-01-30T04:55:14.029Z,13.60
2023-01-30T04:56:22.869Z,13.30
2023-01-30T04:57:32.683Z,13.47
2023-01-30T04:58:41.717Z,15.08
2023-01-30T04:59:52.268Z,11.85
2023-01-30T05:01:23.559Z,13.20
2023-01-30T05:02:33.629Z,12.67
2023-01-30T05:03:43.163Z,10.83
2023-01-30T05:06:07.961Z,10.50
2023-01-30T05:07:18.740Z,9.88
2023-01-30T05:08:27.640Z,9.72
2023-01-30T05:09:36.632Z,10.17
2023-01-30T05:10:45.155Z,9.93
2023-01-30T05:11:54.734Z,8.83
2023-01-30T05:14:21.006Z,10.93
2023-01-30T05:15:29.840Z,11.60
2023-01-30T05:16:38.908Z,11.08
2023-01-30T05:17:48.590Z,15.30
2023-01-30T05:18:57.610Z,13.38
2023-01-30T05:20:08.900Z,15.35
2023-01-30T05:21:22.078Z,14.20
2023-01-30T05:22:33.247Z,11.77
2023-01-30T05:24:52.181Z,11.20
2023-01-30T05:26:01.603Z,11.98
2023-01-30T05:27:11.293Z,11.47
2023-01-30T05:28:20.366Z,12.72
2023-01-30T05:29:28.973Z,12.98
2023-01-30T05:30:38.870Z,10.83
2023-01-30T05:31:49.583Z,10.70
2023-01-30T05:32:58.714Z,12.85
2023-01-30T05:35:24.166Z,12.90
2023-01-30T05:36:34.834Z,12.30
2023-01-30T05:37:43.339Z,10.87
2023-01-30T05:38:52.393Z,12.26
2023-01-30T05:40:00.917Z,13.23
2023-01-30T05:41:12.316Z,11.50
2023-01-30T05:42:21.367Z,24.50
2023-01-30T05:43:31.977Z,16.80
2023-01-30T05:44:41.779Z,12.33
2023-01-30T05:45:56.232Z,13.35
2023-01-30T05:47:04.873Z,13.07
2023-01-30T05:48:13.851Z,13.22
2023-01-30T05:49:23.373Z,12.52
2023-01-30T05:50:34.428Z,16.75
2023-01-30T05:51:43.975Z,16.12
2023-01-30T05:52:53.105Z,13.15
2023-01-30T05:54:01.627Z,13.62
2023-01-30T05:55:10.243Z,19.70
2023-01-30T05:56:20.345Z,27.68
2023-01-30T05:57:29.365Z,15.80
2023-01-30T05:58:38.830Z,12.75
2023-01-30T06:01:19.225Z,11.85
2023-01-30T06:02:40.721Z,11.58
2023-01-30T06:07:20.811Z,13.80
2023-01-30T06:08:36.098Z,13.82
2023-01-30T06:09:54.421Z,13.70
2023-01-30T06:11:06.095Z,16.72
2023-01-30T06:12:14.762Z,17.15
2023-01-30T06:13:23.307Z,15.63
2023-01-30T06:14:32.911Z,14.70
2023-01-30T06:15:41.515Z,17.27
2023-01-30T06:16:51.237Z,14.48
2023-01-30T06:18:02.675Z,15.08
2023-01-30T06:19:13.080Z,15.60
2023-01-30T06:20:22.377Z,14.38
2023-01-30T06:21:35.535Z,12.50
2023-01-30T06:22:44.297Z,13.12
2023-01-30T06:23:55.157Z,15.43
2023-01-30T06:25:05.329Z,11.33
2023-01-30T06:26:15.077Z,10.03
2023-01-30T06:27:26.457Z,10.67
2023-01-30T06:28:36.737Z,10.90
2023-01-30T06:29:46.903Z,9.62
2023-01-30T06:30:56.180Z,12.18
2023-01-30T06:32:07.030Z,11.45
2023-01-30T06:33:21.677Z,10.47
2023-01-30T06:34:30.286Z,10.20
2023-01-30T06:36:58.175Z,11.43
2023-01-30T06:38:10.931Z,9.57
2023-01-30T06:40:27.940Z,10.55
2023-01-30T06:41:43.625Z,13.17
2023-01-30T06:42:55.221Z,15.13
2023-01-30T06:44:04.567Z,11.33
2023-01-30T06:45:15.074Z,11.52
2023-01-30T06:46:23.830Z,11.58
2023-01-30T06:47:33.604Z,11.07
2023-01-30T06:49:58.904Z,10.68
2023-01-30T06:52:22.603Z,10.40
2023-01-30T06:53:32.401Z,10.48
2023-01-30T06:54:42.584Z,10.55
2023-01-30T06:55:51.896Z,10.70
2023-01-30T06:57:02.851Z,9.80
2023-01-30T06:58:15.164Z,11.37
2023-01-30T06:59:25.115Z,10.58
2023-01-30T07:00:35.442Z,10.72
2023-01-30T07:01:44.557Z,10.40
2023-01-30T07:02:53.163Z,10.00
2023-01-30T07:04:01.739Z,9.96
2023-01-30T07:05:11.536Z,10.65
2023-01-30T07:06:21.068Z,9.07
2023-01-30T07:07:31.212Z,9.60
2023-01-30T07:08:41.144Z,9.98
2023-01-30T07:10:06.927Z,10.95
2023-01-30T07:11:05.103Z,11.92
2023-01-30T07:13:22.031Z,9.75
2023-01-30T07:14:32.391Z,10.55
2023-01-30T07:15:42.025Z,9.60
2023-01-30T07:16:52.010Z,9.97
2023-01-30T07:18:01.682Z,9.65
2023-01-30T07:19:10.600Z,12.90
2023-01-30T07:20:20.186Z,9.58
2023-01-30T07:21:28.725Z,11.42
2023-01-30T07:22:41.064Z,9.45
2023-01-30T07:23:49.581Z,9.77
2023-01-30T07:24:58.222Z,12.23
2023-01-30T07:26:08.028Z,10.42
2023-01-30T07:27:17.461Z,11.13
2023-01-30T07:28:26.435Z,10.67
2023-01-30T07:30:53.919Z,10.93
2023-01-30T07:32:04.075Z,20.63
2023-01-30T07:33:12.807Z,10.70
2023-01-30T07:34:21.747Z,11.50
2023-01-30T07:35:31.999Z,10.13
2023-01-30T07:36:41.430Z,10.00
2023-01-30T07:37:53.350Z,11.00
2023-01-30T07:39:02.657Z,10.32
2023-01-30T07:40:14.269Z,10.25
2023-01-30T07:41:23.976Z,11.30
2023-01-30T07:43:49.784Z,11.43
2023-01-30T07:44:59.690Z,11.00
2023-01-30T07:46:08.570Z,11.60
2023-01-30T07:48:33.944Z,11.03
2023-01-30T07:49:43.581Z,11.28
2023-01-30T07:50:57.424Z,11.34
2023-01-30T07:52:07.069Z,12.43
2023-01-30T07:53:18.297Z,13.40
2023-01-30T07:54:26.811Z,13.90
2023-01-30T07:55:35.834Z,13.12
2023-01-30T07:56:44.834Z,15.55
2023-01-30T07:57:56.382Z,13.93
2023-01-30T07:59:06.376Z,13.63
2023-01-30T08:01:26.890Z,11.73
2023-01-30T08:03:51.452Z,13.93
2023-01-30T08:05:01.641Z,13.40
2023-01-30T08:06:10.690Z,13.60
2023-01-30T08:07:19.946Z,13.83
2023-01-30T08:08:28.772Z,12.18
2023-01-30T08:09:37.950Z,15.23
2023-01-30T08:10:49.447Z,13.42
2023-01-30T08:11:58.435Z,14.22
2023-01-30T08:13:07.098Z,13.05
2023-01-30T08:15:34.021Z,15.35
2023-01-30T08:18:00.221Z,14.42
2023-01-30T08:19:09.438Z,15.72
2023-01-30T08:20:18.854Z,16.53
2023-01-30T08:21:27.904Z,15.05
2023-01-30T08:22:36.903Z,15.18
2023-01-30T08:23:45.826Z,14.27
2023-01-30T08:24:55.418Z,16.43
2023-01-30T08:26:05.724Z,15.37
2023-01-30T08:28:31.461Z,14.82
2023-01-30T08:29:41.203Z,15.10
2023-01-30T08:30:52.054Z,15.56
2023-01-30T08:32:03.033Z,16.82
2023-01-30T08:33:12.087Z,15.26
2023-01-30T08:35:35.500Z,14.87
2023-01-30T08:36:47.074Z,14.43
2023-01-30T08:38:06.357Z,14.70
2023-01-30T08:39:22.606Z,13.67
2023-01-30T08:40:32.305Z,14.02
2023-01-30T08:41:42.920Z,14.23
2023-01-30T08:42:52.827Z,13.10
2023-01-30T08:44:01.367Z,13.12
2023-01-30T08:45:10.760Z,14.18
2023-01-30T08:46:24.063Z,14.12
2023-01-30T08:47:35.672Z,12.24
2023-01-30T08:48:49.962Z,13.38
2023-01-30T08:49:57.390Z,13.15
2023-01-30T08:51:07.214Z,14.03
2023-01-30T08:52:15.823Z,13.37
2023-01-30T08:54:46.491Z,12.52
2023-01-30T08:55:55.383Z,13.75
2023-01-30T08:57:06.331Z,12.65
2023-01-30T08:58:16.374Z,11.85
2023-01-30T08:59:24.893Z,12.15
2023-01-30T09:00:33.861Z,11.57
2023-01-30T09:01:45.369Z,17.90
2023-01-30T09:02:56.706Z,12.20
2023-01-30T09:04:05.687Z,12.05
2023-01-30T09:05:14.844Z,13.05
2023-01-30T09:06:26.087Z,11.62
2023-01-30T09:07:35.126Z,11.53
2023-01-30T09:08:44.124Z,13.00
2023-01-30T09:09:52.981Z,11.35
2023-01-30T09:11:05.517Z,10.60
2023-01-30T09:12:14.991Z,11.43
2023-01-30T09:13:24.043Z,12.12
2023-01-30T09:14:34.717Z,11.42
2023-01-30T09:15:45.217Z,10.53
2023-01-30T09:16:56.528Z,11.06
2023-01-30T09:18:06.325Z,10.25
2023-01-30T09:20:29.888Z,12.12
2023-01-30T09:21:38.853Z,14.20
2023-01-30T09:22:47.926Z,13.12
2023-01-30T09:23:57.594Z,12.98
2023-01-30T09:25:07.784Z,14.05
2023-01-30T09:26:17.066Z,26.57
2023-01-30T09:27:25.765Z,26.58
2023-01-30T09:28:36.663Z,35.32
2023-01-30T09:30:58.167Z,20.37
2023-01-30T09:32:07.110Z,21.03
2023-01-30T09:34:39.439Z,11.88
2023-01-30T09:35:48.987Z,11.53
2023-01-30T09:37:05.103Z,12.16
2023-01-30T09:38:13.930Z,9.93
2023-01-30T09:39:23.404Z,12.20
2023-01-30T09:40:34.377Z,8.97
2023-01-30T13:51:48.113Z,14.25
2023-01-30T13:53:24.780Z,16.18
2023-01-30T13:54:54.074Z,16.02
2023-01-30T13:57:39.898Z,13.42
2023-01-30T13:58:52.161Z,12.35
2023-01-30T14:00:23.131Z,11.25
2023-01-30T14:03:14.121Z,12.68
2023-01-30T14:04:44.783Z,15.88
2023-01-30T14:06:00.815Z,12.32
2023-01-30T14:07:22.719Z,13.85
2023-01-30T14:08:50.335Z,13.48
2023-01-30T14:10:11.978Z,15.35
2023-01-30T14:11:45.876Z,12.17
2023-01-30T14:12:55.823Z,13.05
2023-01-30T14:15:59.268Z,12.30
2023-01-30T14:17:11.865Z,12.60
2023-01-30T14:18:35.851Z,13.35
2023-01-30T14:20:04.965Z,12.87
2023-01-30T14:21:26.774Z,15.95
2023-01-30T14:22:55.338Z,11.57
2023-01-30T14:24:07.341Z,11.72
2023-01-30T14:26:51.807Z,12.03
2023-01-30T14:28:07.576Z,10.75
2023-01-30T14:29:41.769Z,10.67
2023-01-30T14:30:53.761Z,10.42
2023-01-30T14:32:03.731Z,10.62
2023-01-30T14:33:25.214Z,9.15
2023-01-30T14:34:40.660Z,10.23
2023-01-30T14:36:06.848Z,11.08
2023-01-30T14:39:01.117Z,67.58
2023-01-30T14:40:28.307Z,16.15
2023-01-30T14:41:38.093Z,12.93
2023-01-30T14:43:07.113Z,14.60
2023-01-30T14:44:19.756Z,10.63
2023-01-30T14:45:48.850Z,11.03
2023-01-30T14:46:58.637Z,10.75
2023-01-30T14:48:29.437Z,11.95
2023-01-30T14:49:40.119Z,9.73
2023-01-30T14:50:49.231Z,11.05
2023-01-30T14:51:59.618Z,10.13
2023-01-30T14:54:41.037Z,11.23
2023-01-30T14:55:41.517Z,11.72
2023-01-30T14:56:58.562Z,11.47
2023-01-30T14:59:30.208Z,13.23
2023-01-30T15:00:39.764Z,11.17
2023-01-30T15:02:15.440Z,11.77
2023-01-30T15:03:24.614Z,10.02
2023-01-30T15:05:04.727Z,11.02
2023-01-30T15:06:14.379Z,13.10
2023-01-30T15:09:03.050Z,10.02
2023-01-30T15:10:34.301Z,9.83
2023-01-30T15:13:18.822Z,9.52
2023-01-30T15:14:31.945Z,9.67
2023-01-30T15:15:59.668Z,10.65
2023-01-30T15:18:43.003Z,10.05
2023-01-30T15:21:31.119Z,10.17
2023-01-30T15:22:44.376Z,28.70
2023-01-30T15:24:06.720Z,42.05
2023-01-30T15:25:22.052Z,74.42
2023-01-30T15:28:27.223Z,15.77
2023-01-30T15:29:57.150Z,11.30
2023-01-30T15:31:09.952Z,10.82
2023-01-30T15:32:25.490Z,10.63
2023-01-30T15:33:44.057Z,10.25
2023-01-30T15:34:56.222Z,10.67
2023-01-30T15:36:27.081Z,10.83
2023-01-30T15:37:49.608Z,10.60
2023-01-30T15:39:02.295Z,9.48
2023-01-30T15:41:42.937Z,9.75
2023-01-30T15:44:49.143Z,10.30
2023-01-30T15:47:27.187Z,9.98
2023-01-30T15:48:49.554Z,9.27
2023-01-30T15:50:07.481Z,11.73
2023-01-30T15:51:19.251Z,9.76
2023-01-30T15:54:01.449Z,9.25
2023-01-30T15:55:17.619Z,11.32
2023-01-30T16:39:37.991Z,9.63
2023-01-30T16:40:47.260Z,9.60
2023-01-30T16:41:57.254Z,9.18
2023-01-30T16:44:36.740Z,9.43
2023-01-30T16:45:55.367Z,11.00
2023-01-30T16:47:08.437Z,10.70
2023-01-30T16:48:23.696Z,10.37
2023-01-30T16:49:40.234Z,8.90
2023-01-30T16:52:28.580Z,10.30
2023-01-30T16:53:40.771Z,8.88
2023-01-30T16:54:54.193Z,10.33
2023-01-30T16:56:11.056Z,9.97
2023-01-30T16:58:55.099Z,9.90
2023-01-30T17:00:25.640Z,9.13
2023-01-30T17:01:38.813Z,7.85
2023-01-30T17:02:51.016Z,10.20
2023-01-30T17:04:02.640Z,11.68
2023-01-30T17:06:42.569Z,10.28
2023-01-30T17:07:53.286Z,9.07
2023-01-30T17:09:04.711Z,11.53
2023-01-30T17:11:59.324Z,9.78
2023-01-30T17:14:52.827Z,10.32
2023-01-30T17:17:28.242Z,10.07
2023-01-30T17:18:36.853Z,9.50
2023-01-30T17:19:48.239Z,9.30
2023-01-30T17:20:57.403Z,12.35
2023-01-30T17:23:27.536Z,10.18
2023-01-30T17:24:36.192Z,10.92
2023-01-30T17:25:47.563Z,10.98
2023-01-30T17:28:23.274Z,11.65
2023-01-30T17:29:47.336Z,11.03
2023-01-30T17:30:45.309Z,11.30
2023-01-30T17:31:54.677Z,9.15
2023-01-30T17:33:04.565Z,10.57
2023-01-30T17:34:13.444Z,11.12
2023-01-30T17:35:23.319Z,10.23
2023-01-30T17:36:33.485Z,9.88
2023-01-30T17:37:45.254Z,10.20
2023-01-30T17:38:55.016Z,10.73
2023-01-30T17:41:31.980Z,10.52
2023-01-30T17:42:40.880Z,10.75
2023-01-30T17:43:51.051Z,10.57
2023-01-30T17:44:59.631Z,11.60
2023-01-30T17:46:09.667Z,13.17
2023-01-30T17:47:18.285Z,10.47
2023-01-30T17:48:27.808Z,10.40
2023-01-30T17:49:37.766Z,10.87
2023-01-30T17:50:46.436Z,10.77
2023-01-30T17:53:11.007Z,11.98
2023-01-30T17:54:20.383Z,10.75
2023-01-30T17:55:29.985Z,11.35
2023-01-30T17:56:41.601Z,9.97
2023-01-30T17:57:51.338Z,13.77
2023-01-30T17:59:01.116Z,11.10
2023-01-30T18:00:17.784Z,10.05
2023-01-30T18:01:26.833Z,10.67
2023-01-30T18:02:35.873Z,10.00
2023-01-30T18:03:45.184Z,146.53
2023-01-30T18:04:54.403Z,195.40
2023-01-30T18:06:03.507Z,97.62
2023-01-30T22:40:23.249Z,30.60
2023-01-30T22:41:36.239Z,23.93
2023-01-30T22:42:48.375Z,22.85
2023-01-30T22:44:00.541Z,19.00
2023-01-30T22:45:10.341Z,19.15
2023-01-30T22:46:20.533Z,19.12
2023-01-30T22:47:30.051Z,19.83
2023-01-30T22:48:40.404Z,17.80
2023-01-30T22:49:50.057Z,16.00
2023-01-30T22:51:14.517Z,15.58
2023-01-30T22:52:23.707Z,15.33
2023-01-30T22:53:40.620Z,16.67
2023-01-30T22:54:50.323Z,15.73
2023-01-30T22:56:04.061Z,15.00
2023-01-30T22:57:12.562Z,14.53
2023-01-30T22:58:22.848Z,14.25
2023-01-30T22:59:32.791Z,14.90
2023-01-30T23:00:42.685Z,14.80
2023-01-30T23:01:52.186Z,13.87
2023-01-30T23:03:01.238Z,15.77
2023-01-30T23:05:31.801Z,17.15
2023-01-30T23:06:42.397Z,16.13
2023-01-30T23:07:52.093Z,17.55
2023-01-30T23:09:01.595Z,18.53
2023-01-30T23:10:11.231Z,19.17
2023-01-30T23:11:23.527Z,20.83
2023-01-30T23:12:51.920Z,18.32
2023-01-30T23:14:07.636Z,20.40
2023-01-30T23:15:16.511Z,23.22
2023-01-30T23:16:27.306Z,28.07
2023-01-30T23:17:54.200Z,23.12
2023-01-30T23:19:04.930Z,17.57
2023-01-30T23:20:14.926Z,19.28
2023-01-30T23:22:43.311Z,21.47
2023-01-30T23:23:55.650Z,21.00
2023-01-30T23:25:05.276Z,21.62
2023-01-30T23:26:15.297Z,20.23
2023-01-30T23:27:24.652Z,20.97
2023-01-30T23:28:34.719Z,21.33
2023-01-30T23:29:43.678Z,21.90
2023-01-30T23:30:53.421Z,19.85
2023-01-30T23:32:03.841Z,19.22
2023-01-30T23:33:13.542Z,20.55
2023-01-30T23:34:23.932Z,22.33
2023-01-30T23:35:36.852Z,20.70
2023-01-30T23:36:47.615Z,18.83
2023-01-30T23:38:15.578Z,18.68
2023-01-30T23:39:24.491Z,20.13
2023-01-30T23:40:33.664Z,21.10
2023-01-30T23:41:43.208Z,17.44
2023-01-30T23:42:52.330Z,20.07
2023-01-30T23:44:02.009Z,18.08
2023-01-30T23:45:11.441Z,21.92
